Time;durP1;ratioP1;P1;durP2;ratioP2;P2;SDS_P1;SDS_P2;PMS_P1;PMS_P2;Temp;Humidity;BMP_temperature;BMP_pressure;BME280_temperature;BME280_humidity;BME280_pressure;Samples;Min_cycle;Max_cycle;Signal;HPM_P1;HPM_P2
2024/02/13 00:00:22;;;;;;;20.33;8.80;;;;;;;;;;5050732;28;20228;-68
2024/02/13 00:02:47;;;;;;;20.60;8.87;;;;;;;;;;5047961;28;20576;-69
2024/02/13 00:05:13;;;;;;;19.17;8.23;;;;;;;;;;5046530;28;20260;-68
2024/02/13 00:07:38;;;;;;;18.33;9.10;;;;;;;;;;5041886;28;20182;-68
2024/02/13 00:10:07;;;;;;;19.87;8.97;;;;;;;;;;5048115;28;20205;-69
2024/02/13 00:12:32;;;;;;;20.00;10.07;;;;;;;;;;5045047;28;20295;-68
2024/02/13 00:14:57;;;;;;;16.97;10.37;;;;;;;;;;5036861;28;20190;-69
2024/02/13 00:17:27;;;;;;;20.07;10.20;;;;;;;;;;5039581;28;20227;-69
2024/02/13 00:19:53;;;;;;;16.53;10.47;;;;;;;;;;5012154;28;20181;-68
2024/02/13 00:22:19;;;;;;;19.97;10.83;;;;;;;;;;5036132;28;20178;-69
2024/02/13 00:24:44;;;;;;;25.67;11.47;;;;;;;;;;5048322;28;20189;-69
2024/02/13 00:27:09;;;;;;;20.53;11.73;;;;;;;;;;5049075;28;20256;-68
2024/02/13 00:29:35;;;;;;;20.73;11.77;;;;;;;;;;5049361;28;20174;-68
2024/02/13 00:32:00;;;;;;;31.53;12.40;;;;;;;;;;5051293;28;20177;-68
2024/02/13 00:34:26;;;;;;;17.23;12.53;;;;;;;;;;5035043;28;20639;-68
2024/02/13 00:36:51;;;;;;;19.40;12.77;;;;;;;;;;5046013;28;20467;-68
2024/02/13 00:39:17;;;;;;;22.53;12.03;;;;;;;;;;5049291;28;20182;-68
2024/02/13 00:41:42;;;;;;;21.07;12.23;;;;;;;;;;5050958;28;20189;-68
2024/02/13 00:44:07;;;;;;;25.00;13.20;;;;;;;;;;5051519;28;20233;-69
2024/02/13 00:46:34;;;;;;;22.30;12.03;;;;;;;;;;5052254;28;20244;-68
2024/02/13 00:49:00;;;;;;;21.50;12.00;;;;;;;;;;5047076;28;20216;-69
2024/02/13 00:51:26;;;;;;;25.90;13.07;;;;;;;;;;5052943;28;20174;-68
2024/02/13 00:53:51;;;;;;;23.27;13.73;;;;;;;;;;5052715;28;20201;-69
2024/02/13 00:56:17;;;;;;;20.40;12.80;;;;;;;;;;5044851;28;20174;-68
2024/02/13 00:58:43;;;;;;;25.73;13.70;;;;;;;;;;5048017;28;20295;-69
2024/02/13 01:01:08;;;;;;;24.20;14.73;;;;;;;;;;5049969;28;20189;-69
2024/02/13 01:03:34;;;;;;;27.33;14.13;;;;;;;;;;5046511;28;20193;-69
2024/02/13 01:05:59;;;;;;;23.97;14.10;;;;;;;;;;5048833;28;20199;-68
2024/02/13 01:08:24;;;;;;;30.90;15.27;;;;;;;;;;5048279;28;20181;-68
2024/02/13 01:10:51;;;;;;;23.40;14.33;;;;;;;;;;5048085;28;20186;-68
2024/02/13 01:13:16;;;;;;;30.07;14.33;;;;;;;;;;5028544;28;20680;-68
2024/02/13 01:15:42;;;;;;;24.67;14.33;;;;;;;;;;5027850;28;20192;-68
2024/02/13 01:18:07;;;;;;;24.30;14.80;;;;;;;;;;5046606;28;20272;-69
2024/02/13 01:20:33;;;;;;;21.40;13.67;;;;;;;;;;5049992;28;20254;-68
2024/02/13 01:22:58;;;;;;;25.53;14.80;;;;;;;;;;5050328;28;20746;-67
2024/02/13 01:25:23;;;;;;;28.53;13.77;;;;;;;;;;5046952;28;20216;-68
2024/02/13 01:27:48;;;;;;;22.10;13.50;;;;;;;;;;5046828;28;20193;-68
2024/02/13 01:30:13;;;;;;;25.37;14.30;;;;;;;;;;5037610;28;20217;-70
2024/02/13 01:32:40;;;;;;;21.97;14.07;;;;;;;;;;5043722;28;20193;-70
2024/02/13 01:35:05;;;;;;;21.70;14.63;;;;;;;;;;5046635;28;20177;-70
2024/02/13 01:37:31;;;;;;;21.00;13.83;;;;;;;;;;5047437;28;20252;-70
2024/02/13 01:39:56;;;;;;;23.23;13.87;;;;;;;;;;5043480;28;20542;-70
2024/02/13 01:42:21;;;;;;;20.90;14.03;;;;;;;;;;5049527;28;20553;-70
2024/02/13 01:44:47;;;;;;;23.07;14.33;;;;;;;;;;5049753;28;20170;-70
2024/02/13 01:47:12;;;;;;;24.73;13.80;;;;;;;;;;5042704;28;20210;-69
2024/02/13 01:49:38;;;;;;;26.67;14.63;;;;;;;;;;5041189;28;20205;-69
2024/02/13 01:52:05;;;;;;;24.20;13.37;;;;;;;;;;5048398;28;20182;-70
2024/02/13 01:54:30;;;;;;;22.50;13.53;;;;;;;;;;5045576;28;20197;-70
2024/02/13 01:56:55;;;;;;;25.07;13.63;;;;;;;;;;5046610;28;20178;-70
2024/02/13 01:59:22;;;;;;;22.57;14.60;;;;;;;;;;5048367;28;20174;-70
2024/02/13 02:01:47;;;;;;;24.90;15.43;;;;;;;;;;5050146;28;20193;-70
2024/02/13 02:04:13;;;;;;;23.10;13.83;;;;;;;;;;5044470;28;20197;-69
2024/02/13 02:06:39;;;;;;;23.10;14.63;;;;;;;;;;5027052;28;20746;-70
2024/02/13 02:09:05;;;;;;;26.70;15.77;;;;;;;;;;5045630;28;20589;-70
2024/02/13 02:11:31;;;;;;;27.57;17.27;;;;;;;;;;5041448;28;20182;-69
2024/02/13 02:13:57;;;;;;;25.80;17.17;;;;;;;;;;5025310;28;20197;-70
2024/02/13 02:16:22;;;;;;;30.50;18.60;;;;;;;;;;5049154;28;20186;-70
2024/02/13 02:18:47;;;;;;;33.73;18.97;;;;;;;;;;5045689;28;20238;-70
2024/02/13 02:21:14;;;;;;;26.73;16.47;;;;;;;;;;5048396;28;20872;-69
2024/02/13 02:23:39;;;;;;;31.87;18.57;;;;;;;;;;5043271;28;20200;-69
2024/02/13 02:26:06;;;;;;;27.40;17.83;;;;;;;;;;5047029;28;20193;-70
2024/02/13 02:28:31;;;;;;;29.93;17.80;;;;;;;;;;5050480;28;20177;-70
2024/02/13 02:30:57;;;;;;;27.77;18.40;;;;;;;;;;5044433;28;20186;-70
2024/02/13 02:33:22;;;;;;;30.00;19.07;;;;;;;;;;5048272;28;20193;-69
2024/02/13 02:35:48;;;;;;;27.53;17.73;;;;;;;;;;5048658;28;20253;-70
2024/02/13 02:38:14;;;;;;;27.97;18.17;;;;;;;;;;5049013;28;20227;-70
2024/02/13 02:40:39;;;;;;;32.27;20.30;;;;;;;;;;5050098;28;20174;-70
2024/02/13 02:43:04;;;;;;;29.07;20.33;;;;;;;;;;5050055;28;20216;-69
2024/02/13 02:45:30;;;;;;;30.67;19.83;;;;;;;;;;5046197;28;20190;-70
2024/02/13 02:47:56;;;;;;;30.00;20.30;;;;;;;;;;5049308;28;20174;-70
2024/02/13 02:50:22;;;;;;;34.13;20.13;;;;;;;;;;5040417;28;20202;-69
2024/02/13 02:52:47;;;;;;;32.87;19.87;;;;;;;;;;5044893;28;20233;-70
2024/02/13 02:55:12;;;;;;;34.90;20.77;;;;;;;;;;5046308;28;20215;-70
2024/02/13 02:57:40;;;;;;;33.53;19.97;;;;;;;;;;5043895;28;20204;-69
2024/02/13 03:00:09;;;;;;;32.97;20.60;;;;;;;;;;5040273;28;20205;-69
2024/02/13 03:02:35;;;;;;;27.97;20.47;;;;;;;;;;5051884;28;20197;-70
2024/02/13 03:05:03;;;;;;;35.63;20.57;;;;;;;;;;5046588;28;20622;-69
2024/02/13 03:07:28;;;;;;;29.37;19.27;;;;;;;;;;5035465;28;20240;-70
2024/02/13 03:09:53;;;;;;;29.53;19.77;;;;;;;;;;5048540;28;20208;-70
2024/02/13 03:12:18;;;;;;;27.47;19.10;;;;;;;;;;5051812;28;20171;-69
2024/02/13 03:14:44;;;;;;;27.47;19.80;;;;;;;;;;5051529;28;20595;-69
2024/02/13 03:17:11;;;;;;;33.90;21.20;;;;;;;;;;5047766;28;20178;-70
2024/02/13 03:19:36;;;;;;;32.40;20.33;;;;;;;;;;5048146;28;20205;-70
2024/02/13 03:22:02;;;;;;;35.57;20.43;;;;;;;;;;5046640;28;20274;-70
2024/02/13 03:24:27;;;;;;;27.10;19.80;;;;;;;;;;5046914;28;20672;-70
2024/02/13 03:26:52;;;;;;;31.77;19.73;;;;;;;;;;5053445;28;20258;-69
2024/02/13 03:29:17;;;;;;;29.20;19.37;;;;;;;;;;5044601;28;20178;-69
2024/02/13 03:31:42;;;;;;;31.90;19.40;;;;;;;;;;5048659;28;20182;-70
2024/02/13 03:34:08;;;;;;;36.73;19.33;;;;;;;;;;5043742;28;20273;-70
2024/02/13 03:36:33;;;;;;;29.47;19.40;;;;;;;;;;5052588;28;20217;-69
2024/02/13 03:38:59;;;;;;;27.50;18.17;;;;;;;;;;5046959;28;20177;-70
2024/02/13 03:41:24;;;;;;;37.43;19.57;;;;;;;;;;5035235;28;20264;-70
2024/02/13 03:43:50;;;;;;;29.17;18.53;;;;;;;;;;5049782;28;20313;-68
2024/02/13 03:46:15;;;;;;;32.33;19.83;;;;;;;;;;5050699;28;20190;-69
2024/02/13 03:48:40;;;;;;;28.20;18.83;;;;;;;;;;5049163;28;20170;-69
2024/02/13 03:51:06;;;;;;;27.70;19.10;;;;;;;;;;5043521;28;20231;-69
2024/02/13 03:53:33;;;;;;;29.60;19.03;;;;;;;;;;5050034;28;20718;-69
2024/02/13 03:56:00;;;;;;;31.67;19.47;;;;;;;;;;5050208;28;20181;-69
2024/02/13 03:58:25;;;;;;;26.43;18.67;;;;;;;;;;5051980;28;20178;-68
2024/02/13 04:00:50;;;;;;;26.93;19.57;;;;;;;;;;5047000;28;20174;-68
2024/02/13 04:03:16;;;;;;;28.87;18.87;;;;;;;;;;5044710;28;20194;-69
2024/02/13 04:05:41;;;;;;;28.70;19.50;;;;;;;;;;5047357;28;20197;-69
2024/02/13 04:08:06;;;;;;;26.20;19.00;;;;;;;;;;5043970;28;20713;-69
2024/02/13 04:10:32;;;;;;;32.10;18.80;;;;;;;;;;5049678;28;20178;-69
2024/02/13 04:12:57;;;;;;;31.57;19.23;;;;;;;;;;5049100;28;20250;-69
2024/02/13 04:15:22;;;;;;;26.57;18.53;;;;;;;;;;5048783;28;20181;-69
2024/02/13 04:17:48;;;;;;;30.60;19.07;;;;;;;;;;5049280;28;20185;-68
2024/02/13 04:20:14;;;;;;;30.30;19.83;;;;;;;;;;5045250;28;20251;-69
2024/02/13 04:22:39;;;;;;;33.03;20.43;;;;;;;;;;5050734;28;20251;-69
2024/02/13 04:25:05;;;;;;;27.77;18.43;;;;;;;;;;5046841;28;20178;-69
2024/02/13 04:27:30;;;;;;;27.23;17.63;;;;;;;;;;5049883;28;20204;-68
2024/02/13 04:29:56;;;;;;;28.90;18.87;;;;;;;;;;5051990;28;20268;-69
2024/02/13 04:32:21;;;;;;;29.90;18.83;;;;;;;;;;5032404;28;20172;-69
2024/02/13 04:34:46;;;;;;;31.50;18.70;;;;;;;;;;5044659;28;20178;-68
2024/02/13 04:37:11;;;;;;;26.47;18.03;;;;;;;;;;5048238;28;20573;-68
2024/02/13 04:39:36;;;;;;;28.53;18.50;;;;;;;;;;5049484;28;20201;-68
2024/02/13 04:42:02;;;;;;;28.47;17.83;;;;;;;;;;5044923;28;20675;-69
2024/02/13 04:44:27;;;;;;;25.03;18.00;;;;;;;;;;5049101;28;20623;-68
2024/02/13 04:46:55;;;;;;;30.40;18.63;;;;;;;;;;5048636;28;20205;-69
2024/02/13 04:49:20;;;;;;;29.20;17.93;;;;;;;;;;5048313;28;20182;-68
2024/02/13 04:51:45;;;;;;;32.40;19.13;;;;;;;;;;5044831;28;20553;-68
2024/02/13 04:54:10;;;;;;;32.63;19.67;;;;;;;;;;5048415;28;20209;-69
2024/02/13 04:56:36;;;;;;;33.33;18.30;;;;;;;;;;5049924;28;20182;-69
2024/02/13 04:59:02;;;;;;;31.00;18.83;;;;;;;;;;5045743;28;20190;-69
2024/02/13 05:01:27;;;;;;;32.30;19.20;;;;;;;;;;5050058;28;20182;-69
2024/02/13 05:09:04;;;;;;;24.90;17.30;;;;;;;;;;5049873;28;20702;-68
2024/02/13 05:11:29;;;;;;;29.53;19.20;;;;;;;;;;5047925;28;20247;-69
2024/02/13 05:13:56;;;;;;;29.33;18.03;;;;;;;;;;5050094;28;20209;-69
2024/02/13 05:16:22;;;;;;;28.97;18.80;;;;;;;;;;5048756;28;20182;-68
2024/02/13 05:18:47;;;;;;;28.00;19.27;;;;;;;;;;5046793;28;20177;-69
2024/02/13 05:21:19;;;;;;;32.77;19.97;;;;;;;;;;5050267;28;20185;-69
2024/02/13 05:23:47;;;;;;;34.67;19.47;;;;;;;;;;5049260;28;20201;-69
2024/02/13 05:26:13;;;;;;;34.00;20.30;;;;;;;;;;5047542;28;20205;-69
2024/02/13 05:28:38;;;;;;;30.77;18.87;;;;;;;;;;5047063;28;20677;-69
2024/02/13 05:31:05;;;;;;;31.40;19.30;;;;;;;;;;5048843;28;20671;-69
2024/02/13 05:33:30;;;;;;;34.67;19.37;;;;;;;;;;5043759;28;20276;-69
2024/02/13 05:35:57;;;;;;;32.10;18.83;;;;;;;;;;5047625;28;20316;-69
2024/02/13 05:38:22;;;;;;;38.53;19.20;;;;;;;;;;5047102;28;20232;-69
2024/02/13 05:40:48;;;;;;;28.10;18.73;;;;;;;;;;5046497;28;20193;-69
2024/02/13 05:43:14;;;;;;;33.60;18.33;;;;;;;;;;5047453;28;20214;-69
2024/02/13 05:45:39;;;;;;;25.57;16.30;;;;;;;;;;5029247;28;20240;-69
2024/02/13 05:48:04;;;;;;;30.30;18.37;;;;;;;;;;5040093;28;20205;-70
2024/02/13 05:50:30;;;;;;;28.83;17.50;;;;;;;;;;5024251;28;20563;-69
2024/02/13 05:52:55;;;;;;;29.60;16.90;;;;;;;;;;5046954;28;20249;-68
2024/02/13 05:55:21;;;;;;;30.97;17.13;;;;;;;;;;5042200;28;20186;-69
2024/02/13 05:57:46;;;;;;;28.60;17.20;;;;;;;;;;5048022;28;20173;-69
2024/02/13 06:00:14;;;;;;;21.53;16.03;;;;;;;;;;5050133;28;20572;-69
2024/02/13 06:02:40;;;;;;;34.40;16.50;;;;;;;;;;5047399;28;20416;-68
2024/02/13 06:05:06;;;;;;;29.37;17.07;;;;;;;;;;5042760;28;20201;-69
2024/02/13 06:07:32;;;;;;;26.30;15.40;;;;;;;;;;5043008;28;20213;-68
2024/02/13 06:09:58;;;;;;;24.37;15.53;;;;;;;;;;5045550;28;20181;-69
2024/02/13 06:12:23;;;;;;;29.73;16.53;;;;;;;;;;5046423;28;20228;-69
2024/02/13 06:14:49;;;;;;;30.67;16.17;;;;;;;;;;5043552;28;20205;-70
2024/02/13 06:17:15;;;;;;;27.03;16.50;;;;;;;;;;5046757;28;20557;-70
2024/02/13 06:19:40;;;;;;;33.60;17.63;;;;;;;;;;5044805;28;20200;-70
2024/02/13 06:22:05;;;;;;;24.40;16.17;;;;;;;;;;5031145;28;20185;-69
2024/02/13 06:24:31;;;;;;;24.83;16.50;;;;;;;;;;5049070;28;20209;-70
2024/02/13 06:26:56;;;;;;;25.23;15.93;;;;;;;;;;5047579;28;20691;-70
2024/02/13 06:29:22;;;;;;;31.97;16.60;;;;;;;;;;5045225;28;20178;-69
2024/02/13 06:31:48;;;;;;;31.87;15.53;;;;;;;;;;5047532;28;20170;-70
2024/02/13 06:34:16;;;;;;;28.50;15.13;;;;;;;;;;5045299;28;20284;-70
2024/02/13 06:36:41;;;;;;;22.83;13.47;;;;;;;;;;5046420;28;20196;-70
2024/02/13 06:39:07;;;;;;;25.93;15.80;;;;;;;;;;5048710;28;20173;-70
2024/02/13 06:41:32;;;;;;;29.60;14.90;;;;;;;;;;5044810;28;20184;-70
2024/02/13 06:43:57;;;;;;;25.10;14.93;;;;;;;;;;5045379;28;20351;-69
2024/02/13 06:46:22;;;;;;;27.10;15.73;;;;;;;;;;5047078;28;20209;-70
2024/02/13 06:48:48;;;;;;;24.63;14.73;;;;;;;;;;5046693;28;20236;-70
2024/02/13 06:51:13;;;;;;;28.80;15.13;;;;;;;;;;5027991;28;20222;-70
2024/02/13 06:53:38;;;;;;;25.30;14.83;;;;;;;;;;5030120;28;20228;-70
2024/02/13 06:56:04;;;;;;;26.10;15.77;;;;;;;;;;5047944;28;20177;-70
2024/02/13 06:58:29;;;;;;;18.80;14.80;;;;;;;;;;5044010;28;20181;-70
2024/02/13 07:00:55;;;;;;;27.67;15.27;;;;;;;;;;5047388;28;20664;-70
2024/02/13 07:03:21;;;;;;;26.53;14.00;;;;;;;;;;5045409;28;20809;-69
2024/02/13 07:05:46;;;;;;;27.77;15.90;;;;;;;;;;5047346;28;20202;-69
2024/02/13 07:08:12;;;;;;;22.73;15.10;;;;;;;;;;5047308;28;20703;-70
2024/02/13 07:10:37;;;;;;;21.83;14.30;;;;;;;;;;5048497;28;20181;-70
2024/02/13 07:13:02;;;;;;;22.97;14.43;;;;;;;;;;5030908;28;20205;-70
2024/02/13 07:15:27;;;;;;;26.53;14.23;;;;;;;;;;5045438;28;20283;-70
2024/02/13 07:17:53;;;;;;;27.50;14.80;;;;;;;;;;5047600;28;20182;-69
2024/02/13 07:20:18;;;;;;;27.00;14.73;;;;;;;;;;5047764;28;20189;-70
2024/02/13 07:22:43;;;;;;;25.93;14.30;;;;;;;;;;5046085;28;20639;-69
2024/02/13 07:25:09;;;;;;;24.00;14.07;;;;;;;;;;5044982;28;20181;-70
2024/02/13 07:27:37;;;;;;;20.13;13.53;;;;;;;;;;5046295;28;20205;-70
2024/02/13 07:30:10;;;;;;;21.43;14.63;;;;;;;;;;5031533;28;20192;-70
2024/02/13 07:32:35;;;;;;;23.70;14.20;;;;;;;;;;5045544;28;20197;-70
2024/02/13 07:35:03;;;;;;;20.27;13.23;;;;;;;;;;5047199;28;20178;-68
2024/02/13 07:37:29;;;;;;;21.10;13.27;;;;;;;;;;5046501;28;20177;-70
2024/02/13 07:39:54;;;;;;;26.50;12.97;;;;;;;;;;5049520;28;20722;-70
2024/02/13 07:42:20;;;;;;;23.33;12.23;;;;;;;;;;5047782;28;20720;-70
2024/02/13 07:44:45;;;;;;;23.07;12.43;;;;;;;;;;5050347;28;20205;-70
2024/02/13 07:47:12;;;;;;;17.57;11.77;;;;;;;;;;5046810;28;20207;-70
2024/02/13 07:49:37;;;;;;;21.93;12.67;;;;;;;;;;5048503;28;20174;-70
2024/02/13 07:52:03;;;;;;;16.80;10.70;;;;;;;;;;5049934;28;20661;-69
2024/02/13 07:54:28;;;;;;;26.03;11.87;;;;;;;;;;5050082;28;20186;-70
2024/02/13 07:56:54;;;;;;;25.03;11.40;;;;;;;;;;5032615;28;20189;-70
2024/02/13 07:59:19;;;;;;;18.53;11.57;;;;;;;;;;5050311;28;20188;-70
2024/02/13 08:01:44;;;;;;;27.80;11.53;;;;;;;;;;5048983;28;20199;-70
2024/02/13 08:04:09;;;;;;;18.93;10.13;;;;;;;;;;5050621;28;20206;-70
2024/02/13 08:06:37;;;;;;;21.97;11.57;;;;;;;;;;5050601;28;20213;-70
2024/02/13 08:09:03;;;;;;;27.97;10.93;;;;;;;;;;5050474;28;20653;-70
2024/02/13 08:11:28;;;;;;;22.03;10.67;;;;;;;;;;5049278;28;20265;-70
2024/02/13 08:13:54;;;;;;;16.73;9.40;;;;;;;;;;5050664;28;20575;-70
2024/02/13 08:16:22;;;;;;;19.57;10.20;;;;;;;;;;5050757;28;20264;-70
2024/02/13 08:18:50;;;;;;;17.40;9.50;;;;;;;;;;5050302;28;20560;-70
2024/02/13 08:21:15;;;;;;;18.43;10.63;;;;;;;;;;5051486;28;20239;-70
2024/02/13 08:23:40;;;;;;;13.87;8.97;;;;;;;;;;5049042;28;20198;-67
2024/02/13 08:26:07;;;;;;;17.70;7.33;;;;;;;;;;5050456;28;20190;-70
2024/02/13 08:28:32;;;;;;;13.83;7.43;;;;;;;;;;5050955;28;20181;-68
2024/02/13 08:30:57;;;;;;;13.90;7.73;;;;;;;;;;5050989;28;20642;-69
2024/02/13 08:33:23;;;;;;;13.17;7.00;;;;;;;;;;5031183;28;20204;-68
2024/02/13 08:35:52;;;;;;;17.00;8.37;;;;;;;;;;5048964;28;20189;-69
2024/02/13 08:38:17;;;;;;;11.80;6.83;;;;;;;;;;5049877;28;20181;-69
2024/02/13 08:40:43;;;;;;;10.63;6.50;;;;;;;;;;5050837;28;20189;-69
2024/02/13 08:43:10;;;;;;;11.53;6.40;;;;;;;;;;5052503;28;20590;-69
2024/02/13 08:45:36;;;;;;;14.97;6.00;;;;;;;;;;5048722;28;20259;-69
2024/02/13 08:48:01;;;;;;;11.43;6.00;;;;;;;;;;5051851;28;20205;-70
2024/02/13 08:50:27;;;;;;;11.77;6.47;;;;;;;;;;5050747;28;20188;-69
2024/02/13 08:52:52;;;;;;;8.97;4.80;;;;;;;;;;5052057;28;20208;-69
2024/02/13 08:55:17;;;;;;;9.73;4.80;;;;;;;;;;5051118;28;20261;-70
2024/02/13 08:57:43;;;;;;;5.87;4.00;;;;;;;;;;5051566;28;20451;-69
2024/02/13 09:00:11;;;;;;;14.73;5.07;;;;;;;;;;5047642;28;20624;-68
2024/02/13 09:02:37;;;;;;;11.00;4.17;;;;;;;;;;5050986;28;20204;-69
2024/02/13 09:05:03;;;;;;;7.37;4.33;;;;;;;;;;5049483;28;20186;-69
2024/02/13 09:07:28;;;;;;;11.07;3.87;;;;;;;;;;5050441;28;20202;-69
2024/02/13 09:09:55;;;;;;;8.93;4.20;;;;;;;;;;5050546;28;20182;-69
2024/02/13 09:12:20;;;;;;;10.00;3.83;;;;;;;;;;5051504;28;20182;-69
2024/02/13 09:14:46;;;;;;;6.60;3.40;;;;;;;;;;5050457;28;20683;-69
2024/02/13 09:17:12;;;;;;;6.63;3.80;;;;;;;;;;5051287;28;20181;-69
2024/02/13 09:19:41;;;;;;;7.57;3.70;;;;;;;;;;5050022;28;20609;-69
2024/02/13 09:22:07;;;;;;;5.87;3.50;;;;;;;;;;5051371;28;20177;-69
2024/02/13 09:24:33;;;;;;;7.23;3.77;;;;;;;;;;5050833;28;20292;-69
2024/02/13 09:26:58;;;;;;;12.77;4.03;;;;;;;;;;5050537;28;20339;-69
2024/02/13 09:29:23;;;;;;;10.77;4.30;;;;;;;;;;5050518;28;20198;-69
2024/02/13 09:31:48;;;;;;;6.00;4.27;;;;;;;;;;5043120;28;20228;-69
2024/02/13 09:34:14;;;;;;;6.60;3.60;;;;;;;;;;5048207;28;20193;-69
2024/02/13 09:36:39;;;;;;;5.77;3.40;;;;;;;;;;5045182;28;20204;-69
2024/02/13 09:39:04;;;;;;;7.60;3.63;;;;;;;;;;5046657;28;20185;-69
2024/02/13 09:41:30;;;;;;;5.53;4.33;;;;;;;;;;5044348;28;20177;-69
2024/02/13 09:43:57;;;;;;;6.07;3.87;;;;;;;;;;5048821;28;20747;-69
2024/02/13 09:46:24;;;;;;;8.07;3.60;;;;;;;;;;5028199;28;20197;-68
2024/02/13 09:48:49;;;;;;;8.10;3.53;;;;;;;;;;5042587;28;20189;-68
2024/02/13 09:51:18;;;;;;;8.03;3.20;;;;;;;;;;5045917;28;20610;-68
2024/02/13 09:53:45;;;;;;;8.20;4.23;;;;;;;;;;5030791;28;20205;-69
2024/02/13 09:56:13;;;;;;;6.57;4.27;;;;;;;;;;5042205;28;20210;-69
2024/02/13 09:58:40;;;;;;;7.07;3.80;;;;;;;;;;5048235;28;20180;-69
2024/02/13 10:01:05;;;;;;;8.87;3.47;;;;;;;;;;5046779;28;20658;-69
2024/02/13 10:03:30;;;;;;;7.03;3.43;;;;;;;;;;5049102;28;20254;-69
2024/02/13 10:05:56;;;;;;;6.37;4.10;;;;;;;;;;5046743;28;20190;-68
2024/02/13 10:08:27;;;;;;;5.83;3.37;;;;;;;;;;5047908;28;20204;-69
2024/02/13 10:11:02;;;;;;;7.70;3.97;;;;;;;;;;5047392;28;20239;-69
2024/02/13 10:13:31;;;;;;;5.13;3.63;;;;;;;;;;5047243;28;20189;-69
2024/02/13 10:15:56;;;;;;;5.27;3.27;;;;;;;;;;5046356;28;20188;-69
2024/02/13 10:18:24;;;;;;;9.30;3.77;;;;;;;;;;5046078;28;20256;-68
2024/02/13 10:20:50;;;;;;;7.67;3.60;;;;;;;;;;5048285;28;20532;-69
2024/02/13 10:23:18;;;;;;;5.90;4.00;;;;;;;;;;5049327;28;20197;-69
2024/02/13 10:25:46;;;;;;;10.63;3.23;;;;;;;;;;5044803;28;20257;-68
2024/02/13 10:28:11;;;;;;;5.87;3.13;;;;;;;;;;5044435;28;20256;-69
2024/02/13 10:30:37;;;;;;;12.03;4.07;;;;;;;;;;5030876;28;20277;-68
2024/02/13 10:33:06;;;;;;;7.07;3.50;;;;;;;;;;5043561;28;20599;-68
2024/02/13 10:35:32;;;;;;;9.17;3.77;;;;;;;;;;5045135;28;20184;-68
2024/02/13 10:37:57;;;;;;;4.70;3.27;;;;;;;;;;5043224;28;20571;-69
2024/02/13 10:40:27;;;;;;;6.93;2.83;;;;;;;;;;5046973;28;20181;-71
2024/02/13 10:42:54;;;;;;;5.17;3.20;;;;;;;;;;5042037;28;20217;-69
2024/02/13 10:45:23;;;;;;;10.57;3.43;;;;;;;;;;5047175;28;20192;-69
2024/02/13 10:47:49;;;;;;;7.47;3.47;;;;;;;;;;5042993;28;20543;-69
2024/02/13 10:50:15;;;;;;;5.47;3.43;;;;;;;;;;5045126;28;20174;-68
2024/02/13 10:52:40;;;;;;;5.73;3.17;;;;;;;;;;5029007;28;20304;-70
2024/02/13 10:55:07;;;;;;;10.85;3.05;;;;;;;;;;5042818;28;20178;-68
2024/02/13 10:57:33;;;;;;;8.00;2.85;;;;;;;;;;5042764;28;20178;-67
2024/02/13 10:59:59;;;;;;;7.55;2.90;;;;;;;;;;5047843;28;20178;-67
2024/02/13 11:02:24;;;;;;;4.78;2.20;;;;;;;;;;5046071;28;20555;-68
2024/02/13 11:04:50;;;;;;;5.68;2.95;;;;;;;;;;5029227;28;20182;-68
2024/02/13 11:07:16;;;;;;;5.40;2.58;;;;;;;;;;5042841;28;20263;-69
2024/02/13 11:09:42;;;;;;;7.27;3.60;;;;;;;;;;5046430;28;20200;-68
2024/02/13 11:12:09;;;;;;;6.80;3.30;;;;;;;;;;5043986;28;20634;-68
2024/02/13 11:14:34;;;;;;;4.77;2.90;;;;;;;;;;5048349;28;20189;-69
2024/02/13 11:17:00;;;;;;;5.22;2.88;;;;;;;;;;5041734;28;20193;-68
2024/02/13 11:19:36;;;;;;;4.90;2.67;;;;;;;;;;5043836;28;20645;-68
2024/02/13 11:22:02;;;;;;;8.88;3.38;;;;;;;;;;5050898;28;20178;-68
2024/02/13 11:24:27;;;;;;;6.03;2.88;;;;;;;;;;5050962;28;20216;-68
2024/02/13 11:26:52;;;;;;;5.30;2.67;;;;;;;;;;5050631;28;20208;-68
2024/02/13 11:29:21;;;;;;;7.68;2.92;;;;;;;;;;5048190;28;20192;-69
2024/02/13 11:31:54;;;;;;;5.22;2.83;;;;;;;;;;5047701;28;20773;-68
2024/02/13 11:34:19;;;;;;;5.68;2.80;;;;;;;;;;5050023;28;20197;-69
2024/02/13 11:36:48;;;;;;;10.38;3.00;;;;;;;;;;5052035;28;20189;-68
2024/02/13 11:39:14;;;;;;;6.00;2.88;;;;;;;;;;5048375;28;20652;-69
2024/02/13 11:41:39;;;;;;;6.43;2.67;;;;;;;;;;5050719;28;20326;-68
2024/02/13 11:44:08;;;;;;;8.10;2.92;;;;;;;;;;5047302;28;20213;-68
2024/02/13 11:46:54;;;;;;;8.77;2.88;;;;;;;;;;5049817;28;20205;-68
2024/02/13 11:49:20;;;;;;;11.73;3.08;;;;;;;;;;5048358;28;20170;-68
2024/02/13 11:51:46;;;;;;;7.25;3.47;;;;;;;;;;5044614;28;20718;-68
2024/02/13 11:54:11;;;;;;;7.53;3.17;;;;;;;;;;5048309;28;20229;-68
2024/02/13 11:56:38;;;;;;;7.72;2.10;;;;;;;;;;5046333;28;20267;-69
2024/02/13 11:59:06;;;;;;;3.13;2.30;;;;;;;;;;5049248;28;20173;-68
2024/02/13 12:01:36;;;;;;;6.38;2.75;;;;;;;;;;5048972;28;20184;-69
2024/02/13 12:04:02;;;;;;;6.28;2.58;;;;;;;;;;5044063;28;20263;-68
2024/02/13 12:06:27;;;;;;;5.90;2.53;;;;;;;;;;5045806;28;20213;-68
2024/02/13 12:08:53;;;;;;;3.38;1.90;;;;;;;;;;5046326;28;20657;-69
2024/02/13 12:11:19;;;;;;;3.17;1.98;;;;;;;;;;5043089;28;20615;-68
2024/02/13 12:13:46;;;;;;;4.03;1.73;;;;;;;;;;5046067;28;20198;-68
2024/02/13 12:16:14;;;;;;;2.90;1.95;;;;;;;;;;5047333;28;20171;-69
2024/02/13 12:18:42;;;;;;;7.65;2.40;;;;;;;;;;5048742;28;20632;-67
2024/02/13 12:21:08;;;;;;;3.47;1.70;;;;;;;;;;5048180;28;20653;-69
2024/02/13 12:23:33;;;;;;;4.22;2.22;;;;;;;;;;5049533;28;20292;-68
2024/02/13 12:26:00;;;;;;;7.35;1.98;;;;;;;;;;5048157;28;20644;-69
2024/02/13 12:28:26;;;;;;;8.30;2.95;;;;;;;;;;5048350;28;20288;-68
2024/02/13 12:30:53;;;;;;;4.75;2.53;;;;;;;;;;5044292;28;20681;-68
2024/02/13 12:33:23;;;;;;;4.72;2.38;;;;;;;;;;5049710;28;20204;-69
2024/02/13 12:36:01;;;;;;;6.68;2.45;;;;;;;;;;5046528;28;20570;-67
2024/02/13 12:38:29;;;;;;;4.95;2.03;;;;;;;;;;5050727;28;20200;-69
2024/02/13 12:40:55;;;;;;;6.05;1.85;;;;;;;;;;5033684;28;20687;-69
2024/02/13 12:43:26;;;;;;;6.38;2.22;;;;;;;;;;5045666;28;20209;-69
2024/02/13 12:45:52;;;;;;;5.13;2.63;;;;;;;;;;5046319;28;20212;-68
2024/02/13 12:48:17;;;;;;;3.35;2.28;;;;;;;;;;5048218;28;20170;-69
2024/02/13 12:50:42;;;;;;;6.18;2.00;;;;;;;;;;5027768;28;20182;-69
2024/02/13 12:53:09;;;;;;;5.05;1.52;;;;;;;;;;5049278;28;20708;-69
2024/02/13 12:55:37;;;;;;;5.78;1.88;;;;;;;;;;5045397;28;20179;-69
2024/02/13 12:58:02;;;;;;;2.50;1.60;;;;;;;;;;5048754;28;20181;-69
2024/02/13 13:00:28;;;;;;;4.78;1.85;;;;;;;;;;5048742;28;20185;-69
2024/02/13 13:02:54;;;;;;;2.33;1.70;;;;;;;;;;5049925;28;20288;-69
2024/02/13 13:05:19;;;;;;;3.25;1.90;;;;;;;;;;5046180;28;20628;-68
2024/02/13 13:07:46;;;;;;;5.43;2.55;;;;;;;;;;5047491;28;20204;-69
2024/02/13 13:10:14;;;;;;;3.35;1.70;;;;;;;;;;5048873;28;20177;-69
2024/02/13 13:12:45;;;;;;;4.78;1.48;;;;;;;;;;5033770;28;20198;-69
2024/02/13 13:15:11;;;;;;;3.95;1.92;;;;;;;;;;5030477;28;20186;-69
2024/02/13 13:17:39;;;;;;;4.28;1.50;;;;;;;;;;5050588;28;20641;-69
2024/02/13 13:20:05;;;;;;;4.68;1.63;;;;;;;;;;5047727;28;20189;-69
2024/02/13 13:22:34;;;;;;;2.08;1.38;;;;;;;;;;5044458;28;20201;-69
2024/02/13 13:25:02;;;;;;;5.32;1.83;;;;;;;;;;5045621;28;20185;-67
2024/02/13 13:27:28;;;;;;;4.30;1.05;;;;;;;;;;5045852;28;20195;-68
2024/02/13 13:29:53;;;;;;;2.92;1.20;;;;;;;;;;5046609;28;20185;-69
2024/02/13 13:32:18;;;;;;;8.05;1.50;;;;;;;;;;5049982;28;20196;-68
2024/02/13 13:34:45;;;;;;;4.93;1.63;;;;;;;;;;5049134;28;20177;-69
2024/02/13 13:37:10;;;;;;;4.00;1.50;;;;;;;;;;5047961;28;20548;-69
2024/02/13 13:39:36;;;;;;;2.45;1.30;;;;;;;;;;5047159;28;20177;-68
2024/02/13 13:42:08;;;;;;;6.70;1.33;;;;;;;;;;5043884;28;20186;-69
2024/02/13 13:44:34;;;;;;;4.13;1.27;;;;;;;;;;5044607;28;20751;-68
2024/02/13 13:46:59;;;;;;;2.53;1.08;;;;;;;;;;5047658;28;20563;-68
2024/02/13 13:49:24;;;;;;;7.43;1.65;;;;;;;;;;5045899;28;20184;-68
2024/02/13 13:51:50;;;;;;;1.65;1.00;;;;;;;;;;5046821;28;20657;-68
2024/02/13 13:54:15;;;;;;;2.60;0.98;;;;;;;;;;5045817;28;20213;-68
2024/02/13 13:56:40;;;;;;;3.83;1.00;;;;;;;;;;5030585;28;20181;-68
2024/02/13 13:59:07;;;;;;;2.60;0.93;;;;;;;;;;5049553;28;20195;-67
2024/02/13 14:01:32;;;;;;;2.13;0.95;;;;;;;;;;5049401;28;20201;-68
2024/02/13 14:03:59;;;;;;;2.72;0.82;;;;;;;;;;5029234;28;20267;-69
2024/02/13 14:06:24;;;;;;;4.68;1.27;;;;;;;;;;5046486;28;20205;-68
2024/02/13 14:08:49;;;;;;;1.90;1.42;;;;;;;;;;5047153;28;20181;-68
2024/02/13 14:11:17;;;;;;;2.70;1.02;;;;;;;;;;5040180;28;20206;-68
2024/02/13 14:13:42;;;;;;;5.38;1.20;;;;;;;;;;5047895;28;20219;-68
2024/02/13 14:16:09;;;;;;;1.98;1.00;;;;;;;;;;5050340;28;20186;-68
2024/02/13 14:18:34;;;;;;;4.82;1.10;;;;;;;;;;5045381;28;20844;-68
2024/02/13 14:20:59;;;;;;;6.00;1.70;;;;;;;;;;5047780;28;20177;-69
2024/02/13 14:23:25;;;;;;;3.15;1.50;;;;;;;;;;5043899;28;20205;-67